Time,TemperatureF,DewpointF,PressureIn,WindDirection,WindDirectionDegrees,WindSpeedMPH,WindSpeedGustMPH,Humidity,HourlyPrecipIn,Conditions,Clouds,dailyrainin,SoftwareType,DateUTC
2013-01-16 00:02:00,15.0,1.0,17.72,WSW,251,0.0,0.0,54,0.00,,,0.00,,2013-01-16 09:02:00,
2013-01-16 00:11:00,15.0,1.0,17.72,WSW,251,0.0,0.0,54,0.00,,,0.00,,2013-01-16 09:11:00,
2013-01-16 00:22:00,15.0,1.0,17.72,WSW,249,0.0,0.0,54,0.00,,,0.00,,2013-01-16 09:22:00,
2013-01-16 00:32:00,15.0,1.0,17.72,WSW,248,0.0,0.0,53,0.00,,,0.00,,2013-01-16 09:32:00,
2013-01-16 00:42:00,15.0,1.0,17.72,WSW,248,0.0,0.0,53,0.00,,,0.00,,2013-01-16 09:42:00,
2013-01-16 00:52:00,15.0,1.0,17.72,WSW,249,0.0,0.0,53,0.00,,,0.00,,2013-01-16 09:52:00,
2013-01-16 01:02:00,15.0,1.0,17.72,WSW,250,0.0,0.0,53,0.00,,,0.00,,2013-01-16 10:02:00,
2013-01-16 01:11:00,15.0,1.0,17.72,WSW,250,0.0,0.0,53,0.00,,,0.00,,2013-01-16 10:11:00,
2013-01-16 01:22:00,15.0,1.0,17.72,WSW,248,0.0,0.0,54,0.00,,,0.00,,2013-01-16 10:22:00,
2013-01-16 01:32:00,14.0,0.0,17.72,WSW,247,0.0,0.0,52,0.00,,,0.00,,2013-01-16 10:32:00,
2013-01-16 01:42:00,14.0,0.0,17.72,WSW,247,0.0,0.0,52,0.00,,,0.00,,2013-01-16 10:42:00,
2013-01-16 01:52:00,14.0,0.0,17.72,WSW,252,0.0,0.0,53,0.00,,,0.00,,2013-01-16 10:52:00,
2013-01-16 02:02:00,13.0,0.0,17.72,WSW,249,0.0,0.0,54,0.00,,,0.00,,2013-01-16 11:02:00,
2013-01-16 02:11:00,13.0,0.0,17.72,WSW,249,0.0,0.0,54,0.00,,,0.00,,2013-01-16 11:11:00,
2013-01-16 02:22:00,13.0,0.0,17.72,WSW,248,0.0,0.0,55,0.00,,,0.00,,2013-01-16 11:22:00,
2013-01-16 02:32:00,13.0,0.0,17.72,WSW,252,0.0,0.0,54,0.00,,,0.00,,2013-01-16 11:32:00,
2013-01-16 02:52:00,12.0,-1.0,17.72,WSW,252,0.0,0.0,54,0.00,,,0.00,,2013-01-16 11:52:00,
2013-01-16 03:02:00,12.0,-1.0,17.72,WSW,248,0.0,0.0,54,0.00,,,0.00,,2013-01-16 12:02:00,
2013-01-16 03:22:00,12.0,-1.0,17.72,WSW,249,0.0,0.0,56,0.00,,,0.00,,2013-01-16 12:22:00,
2013-01-16 03:33:00,12.0,-1.0,17.72,WSW,249,0.0,0.0,56,0.00,,,0.00,,2013-01-16 12:33:00,
2013-01-16 03:52:00,12.0,-1.0,17.72,WSW,248,0.0,0.0,55,0.00,,,0.00,,2013-01-16 12:52:00,
2013-01-16 04:02:00,13.0,0.0,17.72,WSW,249,0.0,0.0,56,0.00,,,0.00,,2013-01-16 13:02:00,
2013-01-16 04:22:00,13.0,0.0,17.72,WSW,252,0.0,0.0,55,0.00,,,0.00,,2013-01-16 13:22:00,
2013-01-16 04:32:00,12.0,-1.0,17.72,WSW,248,0.0,0.0,55,0.00,,,0.00,,2013-01-16 13:32:00,
2013-01-16 04:52:00,12.0,-1.0,17.72,WSW,252,0.0,0.0,55,0.00,,,0.00,,2013-01-16 13:52:00,
2013-01-16 05:02:00,12.0,-1.0,17.72,WSW,248,0.0,0.0,54,0.00,,,0.00,,2013-01-16 14:02:00,
2013-01-16 05:11:00,12.0,-1.0,17.72,WSW,248,0.0,0.0,54,0.00,,,0.00,,2013-01-16 14:11:00,
2013-01-16 05:22:00,11.0,-2.0,17.72,WSW,248,0.0,0.0,54,0.00,,,0.00,,2013-01-16 14:22:00,
2013-01-16 05:32:00,11.0,-2.0,17.72,WSW,252,0.0,0.0,54,0.00,,,0.00,,2013-01-16 14:32:00,
2013-01-16 05:52:00,11.0,-2.0,17.72,WSW,252,0.0,0.0,54,0.00,,,0.00,,2013-01-16 14:52:00,
2013-01-16 06:02:00,12.0,-1.0,17.72,WSW,249,0.0,0.0,54,0.00,,,0.00,,2013-01-16 15:02:00,
2013-01-16 06:22:00,11.0,-2.0,17.72,WSW,248,0.0,0.0,54,0.00,,,0.00,,2013-01-16 15:22:00,
2013-01-16 06:32:00,11.0,-2.0,17.72,WSW,248,0.0,0.0,54,0.00,,,0.00,,2013-01-16 15:32:00,
2013-01-16 06:52:00,11.0,-2.0,17.72,WSW,252,0.0,0.0,54,0.00,,,0.00,,2013-01-16 15:52:00,
2013-01-16 07:03:00,11.0,-2.0,17.72,WSW,248,0.0,0.0,54,0.00,,,0.00,,2013-01-16 16:03:00,
2013-01-16 07:11:00,11.0,-2.0,17.72,WSW,248,0.0,0.0,54,0.00,,,0.00,,2013-01-16 16:11:00,
2013-01-16 07:22:00,11.0,-2.0,17.72,WSW,248,0.0,0.0,54,0.00,,,0.00,,2013-01-16 16:22:00,
2013-01-16 07:32:00,12.0,-3.0,17.72,WSW,248,0.0,0.0,51,0.00,,,0.00,,2013-01-16 16:32:00,
2013-01-16 07:42:00,12.0,-3.0,17.72,WSW,248,0.0,0.0,51,0.00,,,0.00,,2013-01-16 16:42:00,
2013-01-16 07:52:00,12.0,-3.0,17.72,WSW,249,0.0,0.0,51,0.00,,,0.00,,2013-01-16 16:52:00,
2013-01-16 08:02:00,13.0,0.0,17.72,WSW,250,0.0,0.0,54,0.00,,,0.00,,2013-01-16 17:02:00,
2013-01-16 08:22:00,13.0,0.0,17.72,WSW,247,0.0,0.0,54,0.00,,,0.00,,2013-01-16 17:22:00,
2013-01-16 08:33:00,13.0,-1.0,17.72,WSW,249,0.0,0.0,52,0.00,,,0.00,,2013-01-16 17:33:00,
2013-01-16 08:52:00,12.0,-3.0,17.72,WSW,248,0.0,0.0,51,0.00,,,0.00,,2013-01-16 17:52:00,
2013-01-16 09:02:00,13.0,0.0,17.72,WSW,248,0.0,0.0,54,0.00,,,0.00,,2013-01-16 18:02:00,
2013-01-16 09:12:00,13.0,0.0,17.72,WSW,252,0.0,0.0,54,0.00,,,0.00,,2013-01-16 18:12:00,
2013-01-16 09:22:00,13.0,0.0,17.72,WSW,252,0.0,0.0,54,0.00,,,0.00,,2013-01-16 18:22:00,
2013-01-16 09:33:00,12.0,-3.0,17.72,WSW,248,0.0,0.0,50,0.00,,,0.00,,2013-01-16 18:33:00,
2013-01-16 09:52:00,10.0,-5.0,17.72,WSW,251,0.0,0.0,50,0.00,,,0.00,,2013-01-16 18:52:00,
2013-01-16 10:02:00,10.0,-5.0,17.72,WSW,248,0.0,0.0,50,0.00,,,0.00,,2013-01-16 19:02:00,
2013-01-16 10:12:00,10.0,-5.0,17.72,WSW,248,0.0,0.0,50,0.00,,,0.00,,2013-01-16 19:12:00,
2013-01-16 10:22:00,10.0,-5.0,17.72,WSW,249,0.0,0.0,50,0.00,,,0.00,,2013-01-16 19:22:00,
2013-01-16 10:32:00,10.0,-5.0,17.72,WSW,252,0.0,0.0,50,0.00,,,0.00,,2013-01-16 19:32:00,
2013-01-16 10:52:00,10.0,-5.0,17.72,WSW,248,0.0,0.0,50,0.00,,,0.00,,2013-01-16 19:52:00,
2013-01-16 11:02:00,8.0,-7.0,17.72,WSW,250,0.0,0.0,50,0.00,,,0.00,,2013-01-16 20:02:00,
2013-01-16 11:11:00,8.0,-7.0,17.72,WSW,250,0.0,0.0,50,0.00,,,0.00,,2013-01-16 20:11:00,
2013-01-16 11:22:00,9.0,-6.0,17.72,WSW,249,0.0,0.0,50,0.00,,,0.00,,2013-01-16 20:22:00,
2013-01-16 11:32:00,9.0,-6.0,17.72,WSW,249,0.0,0.0,50,0.00,,,0.00,,2013-01-16 20:32:00,
2013-01-16 11:52:00,10.0,-5.0,17.72,WSW,248,0.0,0.0,50,0.00,,,0.00,,2013-01-16 20:52:00,
2013-01-16 12:02:00,9.0,-6.0,17.72,WSW,249,0.0,0.0,50,0.00,,,0.00,,2013-01-16 21:02:00,
2013-01-16 12:22:00,10.0,-5.0,17.72,WSW,249,0.0,0.0,50,0.00,,,0.00,,2013-01-16 21:22:00,
2013-01-16 12:32:00,10.0,-5.0,17.72,WSW,249,0.0,0.0,50,0.00,,,0.00,,2013-01-16 21:32:00,
2013-01-16 12:52:00,10.0,-5.0,17.72,WSW,248,0.0,0.0,50,0.00,,,0.00,,2013-01-16 21:52:00,
2013-01-16 13:02:00,9.0,-6.0,17.72,WSW,248,0.0,0.0,50,0.00,,,0.00,,2013-01-16 22:02:00,
2013-01-16 13:11:00,9.0,-6.0,17.72,WSW,248,0.0,0.0,50,0.00,,,0.00,,2013-01-16 22:11:00,
2013-01-16 13:22:00,8.0,-7.0,17.72,WSW,248,0.0,0.0,50,0.00,,,0.00,,2013-01-16 22:22:00,
2013-01-16 13:32:00,9.0,-6.0,17.72,WSW,249,0.0,0.0,50,0.00,,,0.00,,2013-01-16 22:32:00,
2013-01-16 13:52:00,9.0,-6.0,17.72,WSW,249,0.0,0.0,50,0.00,,,0.00,,2013-01-16 22:52:00,
2013-01-16 14:02:00,11.0,-4.0,17.72,WSW,249,0.0,0.0,50,0.00,,,0.00,,2013-01-16 23:02:00,
2013-01-16 14:11:00,11.0,-4.0,17.72,WSW,249,0.0,0.0,50,0.00,,,0.00,,2013-01-16 23:11:00,
2013-01-16 14:32:00,11.0,-4.0,17.72,WSW,249,0.0,0.0,50,0.00,,,0.00,,2013-01-16 23:32:00,
2013-01-16 14:52:00,11.0,-4.0,17.72,WSW,249,0.0,0.0,50,0.00,,,0.00,,2013-01-16 23:52:00,
2013-01-16 15:02:00,12.0,-1.0,17.72,WSW,248,0.0,0.0,54,0.00,,,0.00,,2013-01-17 00:02:00,
2013-01-16 15:22:00,13.0,0.0,17.72,WSW,249,0.0,0.0,54,0.00,,,0.00,,2013-01-17 00:22:00,
2013-01-16 15:32:00,13.0,0.0,17.72,WSW,250,0.0,0.0,54,0.00,,,0.00,,2013-01-17 00:32:00,
2013-01-16 15:52:00,13.0,0.0,17.72,WSW,247,0.0,0.0,54,0.00,,,0.00,,2013-01-17 00:52:00,
2013-01-16 16:02:00,13.0,0.0,17.72,WSW,247,0.0,0.0,54,0.00,,,0.00,,2013-01-17 01:02:00,
2013-01-16 16:11:00,13.0,0.0,17.72,WSW,247,0.0,0.0,54,0.00,,,0.00,,2013-01-17 01:11:00,
2013-01-16 16:22:00,14.0,1.0,17.72,WSW,248,0.0,0.0,55,0.00,,,0.00,,2013-01-17 01:22:00,
2013-01-16 16:32:00,14.0,0.0,17.72,WSW,249,0.0,0.0,54,0.00,,,0.00,,2013-01-17 01:32:00,
2013-01-16 16:42:00,14.0,0.0,17.72,WSW,249,0.0,0.0,54,0.00,,,0.00,,2013-01-17 01:42:00,
2013-01-16 16:52:00,14.0,1.0,17.72,WSW,250,0.0,0.0,55,0.00,,,0.00,,2013-01-17 01:52:00,
2013-01-16 17:02:00,14.0,1.0,17.72,WSW,248,0.0,0.0,55,0.00,,,0.00,,2013-01-17 02:02:00,
2013-01-16 17:12:00,14.0,1.0,17.72,WSW,248,0.0,0.0,55,0.00,,,0.00,,2013-01-17 02:12:00,
2013-01-16 17:22:00,14.0,1.0,17.72,WSW,249,0.0,0.0,55,0.00,,,0.00,,2013-01-17 02:22:00,
2013-01-16 17:32:00,14.0,0.0,17.72,WSW,248,0.0,0.0,54,0.00,,,0.00,,2013-01-17 02:32:00,
2013-01-16 17:42:00,14.0,0.0,17.72,WSW,248,0.0,0.0,54,0.00,,,0.00,,2013-01-17 02:42:00,
2013-01-16 17:52:00,14.0,0.0,17.72,WSW,248,0.0,0.0,54,0.00,,,0.00,,2013-01-17 02:52:00,
2013-01-16 18:02:00,13.0,-1.0,17.72,WSW,248,0.0,0.0,53,0.00,,,0.00,,2013-01-17 03:02:00,
2013-01-16 18:11:00,13.0,-1.0,17.72,WSW,248,0.0,0.0,53,0.00,,,0.00,,2013-01-17 03:11:00,
2013-01-16 18:22:00,13.0,0.0,17.72,WSW,248,0.0,0.0,55,0.00,,,0.00,,2013-01-17 03:22:00,
2013-01-16 18:32:00,14.0,0.0,17.72,WSW,249,0.0,0.0,54,0.00,,,0.00,,2013-01-17 03:32:00,
2013-01-16 18:42:00,14.0,0.0,17.72,WSW,249,0.0,0.0,54,0.00,,,0.00,,2013-01-17 03:42:00,
2013-01-16 18:52:00,14.0,1.0,17.72,WSW,248,0.0,0.0,55,0.00,,,0.00,,2013-01-17 03:52:00,
2013-01-16 19:02:00,14.0,1.0,17.72,WSW,250,0.0,0.0,55,0.00,,,0.00,,2013-01-17 04:02:00,
2013-01-16 19:11:00,15.0,2.0,17.72,WSW,248,0.0,0.0,55,0.00,,,0.00,,2013-01-17 04:11:00,
2013-01-16 19:22:00,15.0,2.0,17.72,WSW,248,0.0,0.0,55,0.00,,,0.00,,2013-01-17 04:22:00,
2013-01-16 19:32:00,13.0,-1.0,17.72,WSW,249,0.0,0.0,52,0.00,,,0.00,,2013-01-17 04:32:00,
2013-01-16 19:42:00,13.0,-1.0,17.72,WSW,249,0.0,0.0,52,0.00,,,0.00,,2013-01-17 04:42:00,
2013-01-16 19:52:00,13.0,-1.0,17.72,WSW,249,0.0,0.0,52,0.00,,,0.00,,2013-01-17 04:52:00,
2013-01-16 20:03:00,12.0,-2.0,17.72,WSW,248,0.0,0.0,52,0.00,,,0.00,,2013-01-17 05:03:00,
2013-01-16 20:12:00,12.0,-2.0,17.72,WSW,248,0.0,0.0,52,0.00,,,0.00,,2013-01-17 05:12:00,
2013-01-16 20:22:00,12.0,-2.0,17.72,WSW,251,0.0,0.0,52,0.00,,,0.00,,2013-01-17 05:22:00,
2013-01-16 20:32:00,12.0,-2.0,17.72,WSW,249,0.0,0.0,52,0.00,,,0.00,,2013-01-17 05:32:00,
2013-01-16 20:52:00,11.0,-3.0,17.72,WSW,247,0.0,0.0,52,0.00,,,0.00,,2013-01-17 05:52:00,
2013-01-16 21:02:00,11.0,-3.0,17.72,WSW,247,0.0,0.0,52,0.00,,,0.00,,2013-01-17 06:02:00,
2013-01-16 21:11:00,11.0,-3.0,17.72,WSW,251,0.0,0.0,52,0.00,,,0.00,,2013-01-17 06:11:00,
2013-01-16 21:22:00,11.0,-3.0,17.72,WSW,251,0.0,0.0,52,0.00,,,0.00,,2013-01-17 06:22:00,
2013-01-16 21:32:00,11.0,-3.0,17.72,WSW,248,0.0,0.0,52,0.00,,,0.00,,2013-01-17 06:32:00,
2013-01-16 21:52:00,11.0,-3.0,17.72,WSW,248,0.0,0.0,52,0.00,,,0.00,,2013-01-17 06:52:00,
2013-01-16 22:02:00,11.0,-3.0,17.72,WSW,251,0.0,0.0,52,0.00,,,0.00,,2013-01-17 07:02:00,
2013-01-16 22:22:00,11.0,-3.0,17.72,WSW,248,0.0,0.0,52,0.00,,,0.00,,2013-01-17 07:22:00,
2013-01-16 22:32:00,11.0,-3.0,17.72,WSW,248,0.0,0.0,52,0.00,,,0.00,,2013-01-17 07:32:00,
2013-01-16 22:52:00,11.0,-3.0,17.72,WSW,248,0.0,0.0,52,0.00,,,0.00,,2013-01-17 07:52:00,
2013-01-16 23:02:00,11.0,-3.0,17.72,WSW,248,0.0,0.0,52,0.00,,,0.00,,2013-01-17 08:02:00,
2013-01-16 23:22:00,11.0,-3.0,17.72,WSW,248,0.0,0.0,52,0.00,,,0.00,,2013-01-17 08:22:00,
2013-01-16 23:32:00,12.0,-2.0,17.72,WSW,251,0.0,0.0,52,0.00,,,0.00,,2013-01-17 08:32:00,
2013-01-16 23:52:00,12.0,-2.0,17.72,WSW,248,0.0,0.0,52,0.00,,,0.00,,2013-01-17 08:52:00,